sensor_id;sensor_type;location;lat;lon;timestamp;temperature;humidity
16966;DHT22;8599;47.852;12.070;2024-01-30T00:01:16;0.50;99.90
16966;DHT22;8599;47.852;12.070;2024-01-30T00:03:43;0.50;99.90
16966;DHT22;8599;47.852;12.070;2024-01-30T00:06:11;0.50;99.90
16966;DHT22;8599;47.852;12.070;2024-01-30T00:08:38;0.50;99.90
16966;DHT22;8599;47.852;12.070;2024-01-30T00:11:05;0.50;99.90
16966;DHT22;8599;47.852;12.070;2024-01-30T00:13:33;0.50;99.90
16966;DHT22;8599;47.852;12.070;2024-01-30T00:16:00;0.60;99.90
16966;DHT22;8599;47.852;12.070;2024-01-30T00:18:27;0.40;99.90
16966;DHT22;8599;47.852;12.070;2024-01-30T00:20:54;0.30;99.90
16966;DHT22;8599;47.852;12.070;2024-01-30T00:23:22;0.30;99.90
16966;DHT22;8599;47.852;12.070;2024-01-30T00:25:50;0.30;99.90
16966;DHT22;8599;47.852;12.070;2024-01-30T00:28:17;0.30;99.90
16966;DHT22;8599;47.852;12.070;2024-01-30T00:30:44;0.30;99.90
16966;DHT22;8599;47.852;12.070;2024-01-30T00:33:11;0.30;99.90
16966;DHT22;8599;47.852;12.070;2024-01-30T00:35:38;0.40;99.90
16966;DHT22;8599;47.852;12.070;2024-01-30T00:38:04;0.40;99.90
16966;DHT22;8599;47.852;12.070;2024-01-30T00:40:34;0.40;99.90
16966;DHT22;8599;47.852;12.070;2024-01-30T00:43:01;0.40;99.90
16966;DHT22;8599;47.852;12.070;2024-01-30T00:45:28;0.40;99.90
16966;DHT22;8599;47.852;12.070;2024-01-30T00:47:55;0.40;99.90
16966;DHT22;8599;47.852;12.070;2024-01-30T00:50:22;0.40;99.90
16966;DHT22;8599;47.852;12.070;2024-01-30T00:52:48;0.30;99.90
16966;DHT22;8599;47.852;12.070;2024-01-30T00:55:15;0.40;99.90
16966;DHT22;8599;47.852;12.070;2024-01-30T00:57:43;0.30;99.90
16966;DHT22;8599;47.852;12.070;2024-01-30T01:00:11;0.20;99.90
16966;DHT22;8599;47.852;12.070;2024-01-30T01:02:38;0.10;99.90
16966;DHT22;8599;47.852;12.070;2024-01-30T01:05:06;0.10;99.90
16966;DHT22;8599;47.852;12.070;2024-01-30T01:07:33;0.10;99.90
16966;DHT22;8599;47.852;12.070;2024-01-30T01:10:00;0.00;99.90
16966;DHT22;8599;47.852;12.070;2024-01-30T01:12:28;-0.10;99.90
16966;DHT22;8599;47.852;12.070;2024-01-30T01:14:56;-0.10;99.90
16966;DHT22;8599;47.852;12.070;2024-01-30T01:17:22;0.00;99.90
16966;DHT22;8599;47.852;12.070;2024-01-30T01:19:49;0.00;99.90
16966;DHT22;8599;47.852;12.070;2024-01-30T01:22:16;0.00;99.90
16966;DHT22;8599;47.852;12.070;2024-01-30T01:24:43;0.00;99.90
16966;DHT22;8599;47.852;12.070;2024-01-30T01:27:10;0.10;99.90
16966;DHT22;8599;47.852;12.070;2024-01-30T01:29:37;0.10;99.90
16966;DHT22;8599;47.852;12.070;2024-01-30T01:32:06;0.10;99.90
16966;DHT22;8599;47.852;12.070;2024-01-30T01:34:32;0.10;99.90
16966;DHT22;8599;47.852;12.070;2024-01-30T01:36:59;0.00;99.90
16966;DHT22;8599;47.852;12.070;2024-01-30T01:39:26;0.00;99.90
16966;DHT22;8599;47.852;12.070;2024-01-30T01:41:53;0.00;99.90
16966;DHT22;8599;47.852;12.070;2024-01-30T01:44:19;-0.10;99.90
16966;DHT22;8599;47.852;12.070;2024-01-30T01:46:47;-0.10;99.90
16966;DHT22;8599;47.852;12.070;2024-01-30T01:49:16;0.00;99.90
16966;DHT22;8599;47.852;12.070;2024-01-30T01:51:43;-0.10;99.90
16966;DHT22;8599;47.852;12.070;2024-01-30T01:54:11;-0.10;99.90
16966;DHT22;8599;47.852;12.070;2024-01-30T01:56:38;-0.10;99.90
16966;DHT22;8599;47.852;12.070;2024-01-30T01:59:07;-0.10;99.90
16966;DHT22;8599;47.852;12.070;2024-01-30T02:01:34;-0.10;99.90
16966;DHT22;8599;47.852;12.070;2024-01-30T02:04:03;-0.10;99.90
16966;DHT22;8599;47.852;12.070;2024-01-30T02:06:32;0.00;99.90
16966;DHT22;8599;47.852;12.070;2024-01-30T02:09:00;-0.10;99.90
16966;DHT22;8599;47.852;12.070;2024-01-30T02:11:27;-0.30;99.90
16966;DHT22;8599;47.852;12.070;2024-01-30T02:13:54;-0.30;99.90
16966;DHT22;8599;47.852;12.070;2024-01-30T02:16:21;-0.30;99.90
16966;DHT22;8599;47.852;12.070;2024-01-30T02:18:48;-0.30;99.90
16966;DHT22;8599;47.852;12.070;2024-01-30T02:21:16;-0.30;99.90
16966;DHT22;8599;47.852;12.070;2024-01-30T02:23:44;-0.30;99.90
16966;DHT22;8599;47.852;12.070;2024-01-30T02:26:11;-0.20;99.90
16966;DHT22;8599;47.852;12.070;2024-01-30T02:28:38;-0.20;99.90
16966;DHT22;8599;47.852;12.070;2024-01-30T02:31:05;-0.20;99.90
16966;DHT22;8599;47.852;12.070;2024-01-30T02:33:31;-0.10;99.90
16966;DHT22;8599;47.852;12.070;2024-01-30T02:35:58;-0.10;99.90
16966;DHT22;8599;47.852;12.070;2024-01-30T02:38:26;0.00;99.90
16966;DHT22;8599;47.852;12.070;2024-01-30T02:40:54;0.00;99.90
16966;DHT22;8599;47.852;12.070;2024-01-30T02:43:21;-0.10;99.90
16966;DHT22;8599;47.852;12.070;2024-01-30T02:45:48;-0.10;99.90
16966;DHT22;8599;47.852;12.070;2024-01-30T02:48:14;-0.10;99.90
16966;DHT22;8599;47.852;12.070;2024-01-30T02:50:41;-0.10;99.90
16966;DHT22;8599;47.852;12.070;2024-01-30T02:53:08;-0.10;99.90
16966;DHT22;8599;47.852;12.070;2024-01-30T02:55:36;-0.10;99.90
16966;DHT22;8599;47.852;12.070;2024-01-30T02:58:03;-0.10;99.90
16966;DHT22;8599;47.852;12.070;2024-01-30T03:00:30;-0.10;99.90
16966;DHT22;8599;47.852;12.070;2024-01-30T03:02:57;-0.10;99.90
16966;DHT22;8599;47.852;12.070;2024-01-30T03:05:23;-0.10;99.90
16966;DHT22;8599;47.852;12.070;2024-01-30T03:07:50;-0.10;99.90
16966;DHT22;8599;47.852;12.070;2024-01-30T03:10:17;-0.10;99.90
16966;DHT22;8599;47.852;12.070;2024-01-30T03:12:45;-0.20;99.90
16966;DHT22;8599;47.852;12.070;2024-01-30T03:15:12;-0.20;99.90
16966;DHT22;8599;47.852;12.070;2024-01-30T03:17:39;-0.20;99.90
16966;DHT22;8599;47.852;12.070;2024-01-30T03:20:06;-0.20;99.90
16966;DHT22;8599;47.852;12.070;2024-01-30T03:22:35;-0.20;99.90
16966;DHT22;8599;47.852;12.070;2024-01-30T03:25:02;-0.30;99.90
16966;DHT22;8599;47.852;12.070;2024-01-30T03:27:28;-0.30;99.90
16966;DHT22;8599;47.852;12.070;2024-01-30T03:29:57;-0.40;99.90
16966;DHT22;8599;47.852;12.070;2024-01-30T03:32:23;-0.40;99.90
16966;DHT22;8599;47.852;12.070;2024-01-30T03:34:50;-0.40;99.90
16966;DHT22;8599;47.852;12.070;2024-01-30T03:37:17;-0.40;99.90
16966;DHT22;8599;47.852;12.070;2024-01-30T03:39:44;-0.50;99.90
16966;DHT22;8599;47.852;12.070;2024-01-30T03:42:11;-0.60;99.90
16966;DHT22;8599;47.852;12.070;2024-01-30T03:44:37;-0.70;99.90
16966;DHT22;8599;47.852;12.070;2024-01-30T03:47:06;-0.80;99.90
16966;DHT22;8599;47.852;12.070;2024-01-30T03:49:32;-0.80;99.90
16966;DHT22;8599;47.852;12.070;2024-01-30T03:51:59;-0.90;99.90
16966;DHT22;8599;47.852;12.070;2024-01-30T03:54:26;-0.80;99.90
16966;DHT22;8599;47.852;12.070;2024-01-30T03:56:53;-0.80;99.90
16966;DHT22;8599;47.852;12.070;2024-01-30T03:59:20;-0.90;99.90
16966;DHT22;8599;47.852;12.070;2024-01-30T04:01:49;-0.90;99.90
16966;DHT22;8599;47.852;12.070;2024-01-30T04:04:18;-0.90;99.90
16966;DHT22;8599;47.852;12.070;2024-01-30T04:06:45;-0.90;99.90
16966;DHT22;8599;47.852;12.070;2024-01-30T04:09:12;-0.80;99.90
16966;DHT22;8599;47.852;12.070;2024-01-30T04:11:40;-0.80;99.90
16966;DHT22;8599;47.852;12.070;2024-01-30T04:14:07;-0.80;99.90
16966;DHT22;8599;47.852;12.070;2024-01-30T04:16:34;-0.80;99.90
16966;DHT22;8599;47.852;12.070;2024-01-30T04:19:01;-0.70;99.90
16966;DHT22;8599;47.852;12.070;2024-01-30T04:21:30;-0.80;99.90
16966;DHT22;8599;47.852;12.070;2024-01-30T04:23:56;-0.80;99.90
16966;DHT22;8599;47.852;12.070;2024-01-30T04:26:23;-0.70;99.90
16966;DHT22;8599;47.852;12.070;2024-01-30T04:28:50;-0.80;99.90
16966;DHT22;8599;47.852;12.070;2024-01-30T04:31:17;-0.90;99.90
16966;DHT22;8599;47.852;12.070;2024-01-30T04:33:44;-0.90;99.90
16966;DHT22;8599;47.852;12.070;2024-01-30T04:36:10;-0.80;99.90
16966;DHT22;8599;47.852;12.070;2024-01-30T04:38:39;-0.80;99.90
16966;DHT22;8599;47.852;12.070;2024-01-30T04:41:06;-0.80;99.90
16966;DHT22;8599;47.852;12.070;2024-01-30T04:43:32;-0.80;99.90
16966;DHT22;8599;47.852;12.070;2024-01-30T04:45:59;-0.80;99.90
16966;DHT22;8599;47.852;12.070;2024-01-30T04:48:26;-0.70;99.90
16966;DHT22;8599;47.852;12.070;2024-01-30T04:50:53;-0.60;99.90
16966;DHT22;8599;47.852;12.070;2024-01-30T04:53:21;-0.70;99.90
16966;DHT22;8599;47.852;12.070;2024-01-30T04:55:49;-0.70;99.90
16966;DHT22;8599;47.852;12.070;2024-01-30T04:58:16;-0.80;99.90
16966;DHT22;8599;47.852;12.070;2024-01-30T05:00:43;-0.80;99.90
16966;DHT22;8599;47.852;12.070;2024-01-30T05:03:11;-0.70;99.90
16966;DHT22;8599;47.852;12.070;2024-01-30T05:05:38;-0.80;99.90
16966;DHT22;8599;47.852;12.070;2024-01-30T05:08:05;-0.80;99.90
16966;DHT22;8599;47.852;12.070;2024-01-30T05:10:32;-0.80;99.90
16966;DHT22;8599;47.852;12.070;2024-01-30T05:13:00;-0.80;99.90
16966;DHT22;8599;47.852;12.070;2024-01-30T05:15:27;-0.80;99.90
16966;DHT22;8599;47.852;12.070;2024-01-30T05:17:54;-0.80;99.90
16966;DHT22;8599;47.852;12.070;2024-01-30T05:20:21;-0.90;99.90
16966;DHT22;8599;47.852;12.070;2024-01-30T05:22:47;-0.90;99.90
16966;DHT22;8599;47.852;12.070;2024-01-30T05:25:14;-0.80;99.90
16966;DHT22;8599;47.852;12.070;2024-01-30T05:27:41;-0.80;99.90
16966;DHT22;8599;47.852;12.070;2024-01-30T05:30:10;-0.70;99.90
16966;DHT22;8599;47.852;12.070;2024-01-30T05:32:37;-0.70;99.90
16966;DHT22;8599;47.852;12.070;2024-01-30T05:35:05;-0.80;99.90
16966;DHT22;8599;47.852;12.070;2024-01-30T05:37:33;-0.70;99.90
16966;DHT22;8599;47.852;12.070;2024-01-30T05:40:00;-0.80;99.90
16966;DHT22;8599;47.852;12.070;2024-01-30T05:42:27;-0.70;99.90
16966;DHT22;8599;47.852;12.070;2024-01-30T05:44:54;-0.70;99.90
16966;DHT22;8599;47.852;12.070;2024-01-30T05:47:22;-0.60;99.90
16966;DHT22;8599;47.852;12.070;2024-01-30T05:49:48;-0.60;99.90
16966;DHT22;8599;47.852;12.070;2024-01-30T05:52:15;-0.70;99.90
16966;DHT22;8599;47.852;12.070;2024-01-30T05:54:43;-0.70;99.90
16966;DHT22;8599;47.852;12.070;2024-01-30T05:57:10;-0.60;99.90
16966;DHT22;8599;47.852;12.070;2024-01-30T05:59:36;-0.60;99.90
16966;DHT22;8599;47.852;12.070;2024-01-30T06:02:03;-0.70;99.90
16966;DHT22;8599;47.852;12.070;2024-01-30T06:04:31;-0.80;99.90
16966;DHT22;8599;47.852;12.070;2024-01-30T06:06:58;-0.80;99.90
16966;DHT22;8599;47.852;12.070;2024-01-30T06:09:27;-0.70;99.90
16966;DHT22;8599;47.852;12.070;2024-01-30T06:11:54;-0.70;99.90
16966;DHT22;8599;47.852;12.070;2024-01-30T06:14:21;-0.70;99.90
16966;DHT22;8599;47.852;12.070;2024-01-30T06:16:47;-0.70;99.90
16966;DHT22;8599;47.852;12.070;2024-01-30T06:19:14;-0.70;99.90
16966;DHT22;8599;47.852;12.070;2024-01-30T06:21:42;-0.70;99.90
16966;DHT22;8599;47.852;12.070;2024-01-30T06:24:09;-0.70;99.90
16966;DHT22;8599;47.852;12.070;2024-01-30T06:26:36;-0.70;99.90
16966;DHT22;8599;47.852;12.070;2024-01-30T06:29:03;-0.70;99.90
16966;DHT22;8599;47.852;12.070;2024-01-30T06:31:29;-0.70;99.90
16966;DHT22;8599;47.852;12.070;2024-01-30T06:33:56;-0.70;99.90
16966;DHT22;8599;47.852;12.070;2024-01-30T06:36:23;-0.80;99.90
16966;DHT22;8599;47.852;12.070;2024-01-30T06:38:51;-0.90;99.90
16966;DHT22;8599;47.852;12.070;2024-01-30T06:41:18;-0.90;99.90
16966;DHT22;8599;47.852;12.070;2024-01-30T06:43:45;-1.00;99.90
16966;DHT22;8599;47.852;12.070;2024-01-30T06:46:12;-1.00;99.90
16966;DHT22;8599;47.852;12.070;2024-01-30T06:48:39;-1.00;99.90
16966;DHT22;8599;47.852;12.070;2024-01-30T06:51:07;-1.10;99.90
16966;DHT22;8599;47.852;12.070;2024-01-30T06:53:33;-1.10;99.90
16966;DHT22;8599;47.852;12.070;2024-01-30T06:56:02;-1.20;99.90
16966;DHT22;8599;47.852;12.070;2024-01-30T06:58:29;-1.30;99.90
16966;DHT22;8599;47.852;12.070;2024-01-30T07:00:56;-1.40;99.90
16966;DHT22;8599;47.852;12.070;2024-01-30T07:03:23;-1.40;99.90
16966;DHT22;8599;47.852;12.070;2024-01-30T07:05:50;-1.30;99.90
16966;DHT22;8599;47.852;12.070;2024-01-30T07:08:17;-1.20;99.90
16966;DHT22;8599;47.852;12.070;2024-01-30T07:10:44;-1.20;99.90
16966;DHT22;8599;47.852;12.070;2024-01-30T07:13:12;-1.20;99.90
16966;DHT22;8599;47.852;12.070;2024-01-30T07:15:41;-1.30;99.90
16966;DHT22;8599;47.852;12.070;2024-01-30T07:18:08;-1.30;99.90
16966;DHT22;8599;47.852;12.070;2024-01-30T07:20:36;-1.20;99.90
16966;DHT22;8599;47.852;12.070;2024-01-30T07:23:03;-1.10;99.90
16966;DHT22;8599;47.852;12.070;2024-01-30T07:25:30;-1.10;99.90
16966;DHT22;8599;47.852;12.070;2024-01-30T07:27:57;-1.00;99.90
16966;DHT22;8599;47.852;12.070;2024-01-30T07:30:25;-0.90;99.90
16966;DHT22;8599;47.852;12.070;2024-01-30T07:32:52;-0.80;99.90
16966;DHT22;8599;47.852;12.070;2024-01-30T07:35:19;-0.70;99.90
16966;DHT22;8599;47.852;12.070;2024-01-30T07:37:45;-0.60;99.90
16966;DHT22;8599;47.852;12.070;2024-01-30T07:40:13;-0.50;99.90
16966;DHT22;8599;47.852;12.070;2024-01-30T07:42:39;-0.50;99.90
16966;DHT22;8599;47.852;12.070;2024-01-30T07:45:07;-0.40;99.90
16966;DHT22;8599;47.852;12.070;2024-01-30T07:47:35;-0.30;99.90
16966;DHT22;8599;47.852;12.070;2024-01-30T07:50:02;-0.30;99.90
16966;DHT22;8599;47.852;12.070;2024-01-30T07:52:29;-0.20;99.90
16966;DHT22;8599;47.852;12.070;2024-01-30T07:54:56;-0.10;99.90
16966;DHT22;8599;47.852;12.070;2024-01-30T07:57:22;0.00;99.90
16966;DHT22;8599;47.852;12.070;2024-01-30T07:59:50;0.10;99.90
16966;DHT22;8599;47.852;12.070;2024-01-30T08:02:17;0.20;99.90
16966;DHT22;8599;47.852;12.070;2024-01-30T08:04:45;0.30;99.90
16966;DHT22;8599;47.852;12.070;2024-01-30T08:07:14;0.40;99.90
16966;DHT22;8599;47.852;12.070;2024-01-30T08:09:41;0.50;99.90
16966;DHT22;8599;47.852;12.070;2024-01-30T08:12:08;0.50;99.90
16966;DHT22;8599;47.852;12.070;2024-01-30T08:14:34;0.60;99.90
16966;DHT22;8599;47.852;12.070;2024-01-30T08:17:01;0.60;99.90
16966;DHT22;8599;47.852;12.070;2024-01-30T08:19:28;0.70;99.90
16966;DHT22;8599;47.852;12.070;2024-01-30T08:21:56;0.80;99.90
16966;DHT22;8599;47.852;12.070;2024-01-30T08:24:23;0.90;99.90
16966;DHT22;8599;47.852;12.070;2024-01-30T08:26:50;1.00;99.90
16966;DHT22;8599;47.852;12.070;2024-01-30T08:29:16;1.10;99.90
16966;DHT22;8599;47.852;12.070;2024-01-30T08:31:43;1.10;99.90
16966;DHT22;8599;47.852;12.070;2024-01-30T08:34:11;1.20;99.90
16966;DHT22;8599;47.852;12.070;2024-01-30T08:36:38;1.40;99.90
16966;DHT22;8599;47.852;12.070;2024-01-30T08:39:06;1.40;99.90
16966;DHT22;8599;47.852;12.070;2024-01-30T08:41:33;1.60;99.90
16966;DHT22;8599;47.852;12.070;2024-01-30T08:44:00;1.90;99.90
16966;DHT22;8599;47.852;12.070;2024-01-30T08:46:27;2.10;99.90
16966;DHT22;8599;47.852;12.070;2024-01-30T08:48:53;2.30;99.90
16966;DHT22;8599;47.852;12.070;2024-01-30T08:51:20;2.40;99.90
16966;DHT22;8599;47.852;12.070;2024-01-30T08:53:47;2.70;99.90
16966;DHT22;8599;47.852;12.070;2024-01-30T08:56:15;2.90;99.90
16966;DHT22;8599;47.852;12.070;2024-01-30T08:58:42;3.00;99.90
16966;DHT22;8599;47.852;12.070;2024-01-30T09:01:09;3.00;99.90
16966;DHT22;8599;47.852;12.070;2024-01-30T09:03:36;3.10;99.90
16966;DHT22;8599;47.852;12.070;2024-01-30T09:06:08;3.20;99.90
16966;DHT22;8599;47.852;12.070;2024-01-30T09:08:35;3.40;99.90
16966;DHT22;8599;47.852;12.070;2024-01-30T09:11:08;3.40;99.90
16966;DHT22;8599;47.852;12.070;2024-01-30T09:13:36;3.80;99.90
16966;DHT22;8599;47.852;12.070;2024-01-30T09:16:03;4.10;99.90
16966;DHT22;8599;47.852;12.070;2024-01-30T09:18:30;4.10;99.90
16966;DHT22;8599;47.852;12.070;2024-01-30T09:20:57;4.30;99.90
16966;DHT22;8599;47.852;12.070;2024-01-30T09:23:24;4.50;99.90
16966;DHT22;8599;47.852;12.070;2024-01-30T09:25:51;4.60;99.90
16966;DHT22;8599;47.852;12.070;2024-01-30T09:28:18;4.70;99.90
16966;DHT22;8599;47.852;12.070;2024-01-30T09:30:46;5.00;99.90
16966;DHT22;8599;47.852;12.070;2024-01-30T09:33:13;5.10;99.90
16966;DHT22;8599;47.852;12.070;2024-01-30T09:35:40;5.10;99.90
16966;DHT22;8599;47.852;12.070;2024-01-30T09:38:06;5.30;99.90
16966;DHT22;8599;47.852;12.070;2024-01-30T09:40:33;5.30;99.90
16966;DHT22;8599;47.852;12.070;2024-01-30T09:43:00;5.40;99.90
16966;DHT22;8599;47.852;12.070;2024-01-30T09:45:27;5.40;99.90
16966;DHT22;8599;47.852;12.070;2024-01-30T09:47:56;5.40;99.90
16966;DHT22;8599;47.852;12.070;2024-01-30T09:50:26;5.50;99.90
16966;DHT22;8599;47.852;12.070;2024-01-30T09:52:55;5.50;99.90
16966;DHT22;8599;47.852;12.070;2024-01-30T09:55:23;5.60;99.90
16966;DHT22;8599;47.852;12.070;2024-01-30T09:57:50;5.90;99.90
16966;DHT22;8599;47.852;12.070;2024-01-30T10:00:17;6.10;99.90
16966;DHT22;8599;47.852;12.070;2024-01-30T10:02:44;6.10;99.90
16966;DHT22;8599;47.852;12.070;2024-01-30T10:05:15;6.20;99.90
16966;DHT22;8599;47.852;12.070;2024-01-30T10:07:56;6.20;99.90
16966;DHT22;8599;47.852;12.070;2024-01-30T10:10:24;6.30;99.90
16966;DHT22;8599;47.852;12.070;2024-01-30T10:12:51;6.40;99.90
16966;DHT22;8599;47.852;12.070;2024-01-30T10:15:18;6.30;99.90
16966;DHT22;8599;47.852;12.070;2024-01-30T10:17:45;6.30;99.90
16966;DHT22;8599;47.852;12.070;2024-01-30T10:20:14;6.30;99.90
16966;DHT22;8599;47.852;12.070;2024-01-30T10:22:41;6.30;99.90
16966;DHT22;8599;47.852;12.070;2024-01-30T10:25:10;6.50;99.90
16966;DHT22;8599;47.852;12.070;2024-01-30T10:27:39;6.70;99.90
16966;DHT22;8599;47.852;12.070;2024-01-30T10:30:07;6.80;99.90
16966;DHT22;8599;47.852;12.070;2024-01-30T10:32:34;6.80;99.90
16966;DHT22;8599;47.852;12.070;2024-01-30T10:35:01;6.80;99.90
16966;DHT22;8599;47.852;12.070;2024-01-30T10:37:30;6.90;99.90
16966;DHT22;8599;47.852;12.070;2024-01-30T10:40:01;7.10;99.90
16966;DHT22;8599;47.852;12.070;2024-01-30T10:42:31;7.20;99.90
16966;DHT22;8599;47.852;12.070;2024-01-30T10:45:02;7.20;99.90
16966;DHT22;8599;47.852;12.070;2024-01-30T10:47:34;7.30;99.90
16966;DHT22;8599;47.852;12.070;2024-01-30T10:50:02;7.20;99.90
16966;DHT22;8599;47.852;12.070;2024-01-30T10:52:32;7.20;99.90
16966;DHT22;8599;47.852;12.070;2024-01-30T10:54:59;7.10;99.90
16966;DHT22;8599;47.852;12.070;2024-01-30T10:57:27;7.30;99.90
16966;DHT22;8599;47.852;12.070;2024-01-30T10:59:56;7.30;99.90
16966;DHT22;8599;47.852;12.070;2024-01-30T11:02:24;7.40;99.90
16966;DHT22;8599;47.852;12.070;2024-01-30T11:04:57;7.40;99.90
16966;DHT22;8599;47.852;12.070;2024-01-30T11:07:25;7.50;99.90
16966;DHT22;8599;47.852;12.070;2024-01-30T11:09:59;7.60;99.90
16966;DHT22;8599;47.852;12.070;2024-01-30T11:12:27;7.70;99.90
16966;DHT22;8599;47.852;12.070;2024-01-30T11:15:04;7.80;99.90
16966;DHT22;8599;47.852;12.070;2024-01-30T11:17:45;7.80;99.90
16966;DHT22;8599;47.852;12.070;2024-01-30T11:20:20;7.90;99.90
16966;DHT22;8599;47.852;12.070;2024-01-30T11:22:47;8.00;99.90
16966;DHT22;8599;47.852;12.070;2024-01-30T11:25:16;8.10;99.90
16966;DHT22;8599;47.852;12.070;2024-01-30T11:27:44;8.10;99.90
16966;DHT22;8599;47.852;12.070;2024-01-30T11:30:20;8.20;99.90
16966;DHT22;8599;47.852;12.070;2024-01-30T11:32:58;8.20;99.90
16966;DHT22;8599;47.852;12.070;2024-01-30T11:35:25;8.20;99.90
16966;DHT22;8599;47.852;12.070;2024-01-30T11:37:52;8.20;99.90
16966;DHT22;8599;47.852;12.070;2024-01-30T11:40:22;8.30;99.90
16966;DHT22;8599;47.852;12.070;2024-01-30T11:42:49;8.30;99.90
16966;DHT22;8599;47.852;12.070;2024-01-30T11:45:17;8.30;99.90
16966;DHT22;8599;47.852;12.070;2024-01-30T11:47:44;8.30;99.90
16966;DHT22;8599;47.852;12.070;2024-01-30T11:50:11;8.40;99.90
16966;DHT22;8599;47.852;12.070;2024-01-30T11:52:38;8.40;99.90
16966;DHT22;8599;47.852;12.070;2024-01-30T11:55:05;8.50;99.90
16966;DHT22;8599;47.852;12.070;2024-01-30T11:57:35;8.50;99.90
16966;DHT22;8599;47.852;12.070;2024-01-30T12:00:03;8.80;99.90
16966;DHT22;8599;47.852;12.070;2024-01-30T12:02:34;8.90;99.90
16966;DHT22;8599;47.852;12.070;2024-01-30T12:05:04;8.90;99.90
16966;DHT22;8599;47.852;12.070;2024-01-30T12:07:31;9.10;99.90
16966;DHT22;8599;47.852;12.070;2024-01-30T12:09:58;9.20;99.90
16966;DHT22;8599;47.852;12.070;2024-01-30T12:12:25;9.30;99.90
16966;DHT22;8599;47.852;12.070;2024-01-30T12:14:55;9.40;99.90
16966;DHT22;8599;47.852;12.070;2024-01-30T12:17:27;9.40;99.90
16966;DHT22;8599;47.852;12.070;2024-01-30T12:20:03;9.50;99.90
16966;DHT22;8599;47.852;12.070;2024-01-30T12:22:33;9.80;99.90
16966;DHT22;8599;47.852;12.070;2024-01-30T12:25:00;9.90;99.90
16966;DHT22;8599;47.852;12.070;2024-01-30T12:27:27;9.90;99.90
16966;DHT22;8599;47.852;12.070;2024-01-30T12:29:58;9.90;99.90
16966;DHT22;8599;47.852;12.070;2024-01-30T12:32:25;9.90;99.90
16966;DHT22;8599;47.852;12.070;2024-01-30T12:34:55;9.90;99.90
16966;DHT22;8599;47.852;12.070;2024-01-30T12:37:22;10.00;99.90
16966;DHT22;8599;47.852;12.070;2024-01-30T12:39:51;10.10;99.90
16966;DHT22;8599;47.852;12.070;2024-01-30T12:42:19;10.20;99.90
16966;DHT22;8599;47.852;12.070;2024-01-30T12:44:46;10.30;99.90
16966;DHT22;8599;47.852;12.070;2024-01-30T12:47:14;10.30;99.90
16966;DHT22;8599;47.852;12.070;2024-01-30T12:49:42;10.20;99.90
16966;DHT22;8599;47.852;12.070;2024-01-30T12:52:09;10.20;99.90
16966;DHT22;8599;47.852;12.070;2024-01-30T12:54:37;10.40;99.90
16966;DHT22;8599;47.852;12.070;2024-01-30T12:57:04;10.40;99.90
16966;DHT22;8599;47.852;12.070;2024-01-30T12:59:31;10.30;99.90
16966;DHT22;8599;47.852;12.070;2024-01-30T13:01:59;10.40;99.90
16966;DHT22;8599;47.852;12.070;2024-01-30T13:04:28;10.60;99.90
16966;DHT22;8599;47.852;12.070;2024-01-30T13:06:55;10.90;99.90
16966;DHT22;8599;47.852;12.070;2024-01-30T13:09:21;11.00;99.90
16966;DHT22;8599;47.852;12.070;2024-01-30T13:11:49;11.10;99.90
16966;DHT22;8599;47.852;12.070;2024-01-30T13:14:16;11.10;99.90
16966;DHT22;8599;47.852;12.070;2024-01-30T13:16:43;11.00;99.90
16966;DHT22;8599;47.852;12.070;2024-01-30T13:19:10;11.00;99.90
16966;DHT22;8599;47.852;12.070;2024-01-30T13:21:38;11.10;99.90
16966;DHT22;8599;47.852;12.070;2024-01-30T13:24:06;11.30;99.90
16966;DHT22;8599;47.852;12.070;2024-01-30T13:26:33;11.50;99.90
16966;DHT22;8599;47.852;12.070;2024-01-30T13:28:59;11.50;99.90
16966;DHT22;8599;47.852;12.070;2024-01-30T13:31:26;11.50;99.90
16966;DHT22;8599;47.852;12.070;2024-01-30T13:33:53;11.50;99.90
16966;DHT22;8599;47.852;12.070;2024-01-30T13:36:21;11.60;99.90
16966;DHT22;8599;47.852;12.070;2024-01-30T13:38:49;11.60;99.90
16966;DHT22;8599;47.852;12.070;2024-01-30T13:41:16;11.70;99.90
16966;DHT22;8599;47.852;12.070;2024-01-30T13:43:43;11.80;99.90
16966;DHT22;8599;47.852;12.070;2024-01-30T13:46:10;11.90;99.90
16966;DHT22;8599;47.852;12.070;2024-01-30T13:48:37;11.80;99.90
16966;DHT22;8599;47.852;12.070;2024-01-30T13:51:04;11.80;99.90
16966;DHT22;8599;47.852;12.070;2024-01-30T13:53:31;11.80;99.90
16966;DHT22;8599;47.852;12.070;2024-01-30T13:55:59;11.80;99.90
16966;DHT22;8599;47.852;12.070;2024-01-30T13:58:26;11.80;99.90
16966;DHT22;8599;47.852;12.070;2024-01-30T14:00:53;11.90;99.90
16966;DHT22;8599;47.852;12.070;2024-01-30T14:03:20;11.90;99.90
16966;DHT22;8599;47.852;12.070;2024-01-30T14:05:47;11.90;99.90
16966;DHT22;8599;47.852;12.070;2024-01-30T14:08:14;12.00;99.90
16966;DHT22;8599;47.852;12.070;2024-01-30T14:10:41;11.90;99.90
16966;DHT22;8599;47.852;12.070;2024-01-30T14:13:09;12.00;99.90
16966;DHT22;8599;47.852;12.070;2024-01-30T14:15:37;12.10;99.90
16966;DHT22;8599;47.852;12.070;2024-01-30T14:18:04;12.10;99.90
16966;DHT22;8599;47.852;12.070;2024-01-30T14:20:33;12.10;99.90
16966;DHT22;8599;47.852;12.070;2024-01-30T14:23:00;12.00;99.90
16966;DHT22;8599;47.852;12.070;2024-01-30T14:25:27;12.00;99.90
16966;DHT22;8599;47.852;12.070;2024-01-30T14:27:54;12.00;99.90
16966;DHT22;8599;47.852;12.070;2024-01-30T14:30:22;12.10;99.90
16966;DHT22;8599;47.852;12.070;2024-01-30T14:32:49;12.20;99.90
16966;DHT22;8599;47.852;12.070;2024-01-30T14:35:16;12.20;99.90
16966;DHT22;8599;47.852;12.070;2024-01-30T14:37:45;12.30;99.90
16966;DHT22;8599;47.852;12.070;2024-01-30T14:40:11;12.30;99.90
16966;DHT22;8599;47.852;12.070;2024-01-30T14:42:38;12.50;99.90
16966;DHT22;8599;47.852;12.070;2024-01-30T14:45:06;12.50;99.90
16966;DHT22;8599;47.852;12.070;2024-01-30T14:47:35;12.50;99.90
16966;DHT22;8599;47.852;12.070;2024-01-30T14:50:02;12.50;99.90
16966;DHT22;8599;47.852;12.070;2024-01-30T14:52:29;12.50;99.90
16966;DHT22;8599;47.852;12.070;2024-01-30T14:54:56;12.30;99.90
16966;DHT22;8599;47.852;12.070;2024-01-30T14:57:23;12.10;99.90
16966;DHT22;8599;47.852;12.070;2024-01-30T14:59:50;12.00;99.90
16966;DHT22;8599;47.852;12.070;2024-01-30T15:02:17;11.80;99.90
16966;DHT22;8599;47.852;12.070;2024-01-30T15:04:45;11.60;99.90
16966;DHT22;8599;47.852;12.070;2024-01-30T15:07:12;11.50;99.90
16966;DHT22;8599;47.852;12.070;2024-01-30T15:09:39;11.30;99.90
16966;DHT22;8599;47.852;12.070;2024-01-30T15:12:06;11.20;99.90
16966;DHT22;8599;47.852;12.070;2024-01-30T15:14:33;11.00;99.90
16966;DHT22;8599;47.852;12.070;2024-01-30T15:17:00;11.00;99.90
16966;DHT22;8599;47.852;12.070;2024-01-30T15:19:27;10.80;99.90
16966;DHT22;8599;47.852;12.070;2024-01-30T15:21:55;10.70;99.90
16966;DHT22;8599;47.852;12.070;2024-01-30T15:24:22;10.60;99.90
16966;DHT22;8599;47.852;12.070;2024-01-30T15:26:50;10.40;99.90
16966;DHT22;8599;47.852;12.070;2024-01-30T15:29:17;10.30;99.90
16966;DHT22;8599;47.852;12.070;2024-01-30T15:31:46;10.20;99.90
16966;DHT22;8599;47.852;12.070;2024-01-30T15:34:13;10.10;99.90
16966;DHT22;8599;47.852;12.070;2024-01-30T15:36:40;9.90;99.90
16966;DHT22;8599;47.852;12.070;2024-01-30T15:39:08;9.80;99.90